sensor_id;sensor_type;location;lat;lon;timestamp;pressure;altitude;pressure_sealevel;temperature;humidity
71772;BME280;59606;52.138;5.424;2023-08-17T00:01:52;102198.31;;;18.80;79.00
71772;BME280;59606;52.138;5.424;2023-08-17T00:04:19;102192.41;;;18.77;79.00
71772;BME280;59606;52.138;5.424;2023-08-17T00:06:46;102194.31;;;18.75;79.71
71772;BME280;59606;52.138;5.424;2023-08-17T00:09:13;102190.25;;;18.69;79.74
71772;BME280;59606;52.138;5.424;2023-08-17T00:11:40;102193.09;;;18.66;79.89
71772;BME280;59606;52.138;5.424;2023-08-17T00:14:06;102188.66;;;18.67;79.82
71772;BME280;59606;52.138;5.424;2023-08-17T00:16:33;102191.50;;;18.64;80.13
71772;BME280;59606;52.138;5.424;2023-08-17T00:18:59;102190.78;;;18.61;80.09
71772;BME280;59606;52.138;5.424;2023-08-17T00:21:26;102193.63;;;18.58;80.44
71772;BME280;59606;52.138;5.424;2023-08-17T00:23:52;102188.56;;;18.55;80.21
71772;BME280;59606;52.138;5.424;2023-08-17T00:26:18;102180.09;;;18.50;80.53
71772;BME280;59606;52.138;5.424;2023-08-17T00:28:46;102183.81;;;18.48;80.67
71772;BME280;59606;52.138;5.424;2023-08-17T00:31:12;102177.97;;;18.43;80.95
71772;BME280;59606;52.138;5.424;2023-08-17T00:33:39;102173.72;;;18.40;80.89
71772;BME280;59606;52.138;5.424;2023-08-17T00:36:05;102181.00;;;18.36;81.15
71772;BME280;59606;52.138;5.424;2023-08-17T00:38:32;102184.50;;;18.37;81.10
71772;BME280;59606;52.138;5.424;2023-08-17T00:40:59;102187.13;;;18.37;81.27
71772;BME280;59606;52.138;5.424;2023-08-17T00:43:25;102183.75;;;18.35;80.97
71772;BME280;59606;52.138;5.424;2023-08-17T00:45:52;102189.69;;;18.38;81.51
71772;BME280;59606;52.138;5.424;2023-08-17T00:48:19;102184.28;;;18.40;81.10
71772;BME280;59606;52.138;5.424;2023-08-17T00:50:48;102175.84;;;18.35;80.84
71772;BME280;59606;52.138;5.424;2023-08-17T00:53:15;102176.25;;;18.29;81.03
71772;BME280;59606;52.138;5.424;2023-08-17T00:55:43;102176.44;;;18.26;81.22
71772;BME280;59606;52.138;5.424;2023-08-17T00:58:09;102181.59;;;18.27;81.75
71772;BME280;59606;52.138;5.424;2023-08-17T01:00:36;102181.59;;;18.27;81.04
71772;BME280;59606;52.138;5.424;2023-08-17T01:03:03;102173.69;;;18.27;81.40
71772;BME280;59606;52.138;5.424;2023-08-17T01:05:30;102177.19;;;18.28;81.17
71772;BME280;59606;52.138;5.424;2023-08-17T01:07:59;102186.25;;;18.24;80.77
71772;BME280;59606;52.138;5.424;2023-08-17T01:10:39;102177.03;;;18.17;81.28
71772;BME280;59606;52.138;5.424;2023-08-17T01:13:25;102185.06;;;18.15;81.50
71772;BME280;59606;52.138;5.424;2023-08-17T01:15:56;102184.31;;;18.13;81.41
71772;BME280;59606;52.138;5.424;2023-08-17T01:18:31;102180.06;;;18.10;81.82
71772;BME280;59606;52.138;5.424;2023-08-17T01:20:58;102183.34;;;18.14;81.76
71772;BME280;59606;52.138;5.424;2023-08-17T01:23:26;102179.78;;;18.15;81.53
71772;BME280;59606;52.138;5.424;2023-08-17T01:25:53;102175.38;;;18.16;81.33
71772;BME280;59606;52.138;5.424;2023-08-17T01:28:20;102178.19;;;18.12;81.77
71772;BME280;59606;52.138;5.424;2023-08-17T01:30:52;102168.81;;;18.08;81.54
71772;BME280;59606;52.138;5.424;2023-08-17T01:33:31;102167.50;;;18.01;81.87
71772;BME280;59606;52.138;5.424;2023-08-17T01:36:05;102175.31;;;18.03;81.83
71772;BME280;59606;52.138;5.424;2023-08-17T01:38:34;102171.72;;;18.04;82.16
71772;BME280;59606;52.138;5.424;2023-08-17T01:41:02;102171.00;;;18.02;81.85
71772;BME280;59606;52.138;5.424;2023-08-17T01:43:30;102170.34;;;17.98;82.04
71772;BME280;59606;52.138;5.424;2023-08-17T01:45:57;102176.53;;;17.97;82.39
71772;BME280;59606;52.138;5.424;2023-08-17T01:48:23;102171.59;;;17.93;82.54
71772;BME280;59606;52.138;5.424;2023-08-17T01:50:50;102168.19;;;17.90;82.84
71772;BME280;59606;52.138;5.424;2023-08-17T01:53:17;102161.34;;;17.88;82.56
71772;BME280;59606;52.138;5.424;2023-08-17T01:55:43;102160.38;;;17.89;82.84
71772;BME280;59606;52.138;5.424;2023-08-17T01:58:10;102159.75;;;17.85;82.64
71772;BME280;59606;52.138;5.424;2023-08-17T02:00:36;102162.47;;;17.84;82.87
71772;BME280;59606;52.138;5.424;2023-08-17T02:03:03;102156.47;;;17.82;83.08
71772;BME280;59606;52.138;5.424;2023-08-17T02:05:29;102151.28;;;17.80;83.08
71772;BME280;59606;52.138;5.424;2023-08-17T02:07:56;102162.78;;;17.79;83.00
71772;BME280;59606;52.138;5.424;2023-08-17T02:10:23;102159.56;;;17.74;83.22
71772;BME280;59606;52.138;5.424;2023-08-17T02:12:49;102156.06;;;17.74;83.08
71772;BME280;59606;52.138;5.424;2023-08-17T02:15:22;102153.72;;;17.69;83.06
71772;BME280;59606;52.138;5.424;2023-08-17T02:17:48;102159.50;;;17.61;83.57
71772;BME280;59606;52.138;5.424;2023-08-17T02:20:15;102166.84;;;17.56;84.08
71772;BME280;59606;52.138;5.424;2023-08-17T02:22:41;102172.22;;;17.55;84.42
71772;BME280;59606;52.138;5.424;2023-08-17T02:25:08;102164.38;;;17.53;84.10
71772;BME280;59606;52.138;5.424;2023-08-17T02:27:35;102168.81;;;17.53;84.44
71772;BME280;59606;52.138;5.424;2023-08-17T02:30:03;102166.28;;;17.51;84.46
71772;BME280;59606;52.138;5.424;2023-08-17T02:32:29;102168.34;;;17.46;84.58
71772;BME280;59606;52.138;5.424;2023-08-17T02:34:56;102171.28;;;17.41;84.66
71772;BME280;59606;52.138;5.424;2023-08-17T02:37:22;102171.28;;;17.41;84.96
71772;BME280;59606;52.138;5.424;2023-08-17T02:39:49;102156.44;;;17.40;84.94
71772;BME280;59606;52.138;5.424;2023-08-17T02:42:16;102158.19;;;17.40;85.06
71772;BME280;59606;52.138;5.424;2023-08-17T02:44:42;102154.72;;;17.39;85.36
71772;BME280;59606;52.138;5.424;2023-08-17T02:47:09;102153.88;;;17.39;85.20
71772;BME280;59606;52.138;5.424;2023-08-17T02:49:36;102148.53;;;17.40;85.81
71772;BME280;59606;52.138;5.424;2023-08-17T02:52:03;102144.94;;;17.41;85.19
71772;BME280;59606;52.138;5.424;2023-08-17T02:54:29;102148.53;;;17.40;85.42
71772;BME280;59606;52.138;5.424;2023-08-17T02:56:57;102138.91;;;17.39;85.39
71772;BME280;59606;52.138;5.424;2023-08-17T02:59:24;102148.53;;;17.40;85.55
71772;BME280;59606;52.138;5.424;2023-08-17T03:01:51;102145.78;;;17.42;85.25
71772;BME280;59606;52.138;5.424;2023-08-17T03:04:17;102144.00;;;17.42;85.53
71772;BME280;59606;52.138;5.424;2023-08-17T03:06:44;102143.34;;;17.39;85.49
71772;BME280;59606;52.138;5.424;2023-08-17T03:09:10;102147.75;;;17.38;85.50
71772;BME280;59606;52.138;5.424;2023-08-17T03:11:37;102147.84;;;17.37;85.41
71772;BME280;59606;52.138;5.424;2023-08-17T03:14:04;102144.47;;;17.35;85.59
71772;BME280;59606;52.138;5.424;2023-08-17T03:16:30;102142.69;;;17.35;85.54
71772;BME280;59606;52.138;5.424;2023-08-17T03:18:58;102155.97;;;17.34;85.44
71772;BME280;59606;52.138;5.424;2023-08-17T03:21:25;102148.25;;;17.31;85.37
71772;BME280;59606;52.138;5.424;2023-08-17T03:23:52;102149.19;;;17.30;85.75
71772;BME280;59606;52.138;5.424;2023-08-17T03:26:18;102148.13;;;17.32;85.29
71772;BME280;59606;52.138;5.424;2023-08-17T03:28:45;102141.28;;;17.30;85.40
71772;BME280;59606;52.138;5.424;2023-08-17T03:31:11;102144.97;;;17.27;85.42
71772;BME280;59606;52.138;5.424;2023-08-17T03:33:38;102145.22;;;17.23;85.83
71772;BME280;59606;52.138;5.424;2023-08-17T03:36:05;102137.97;;;17.26;85.81
71772;BME280;59606;52.138;5.424;2023-08-17T03:38:32;102130.91;;;17.27;85.75
71772;BME280;59606;52.138;5.424;2023-08-17T03:40:58;102141.00;;;17.20;85.86
71772;BME280;59606;52.138;5.424;2023-08-17T03:43:25;102135.72;;;17.20;85.70
71772;BME280;59606;52.138;5.424;2023-08-17T03:45:53;102136.03;;;17.15;85.92
71772;BME280;59606;52.138;5.424;2023-08-17T03:48:20;102133.38;;;17.15;85.84
71772;BME280;59606;52.138;5.424;2023-08-17T03:50:52;102143.16;;;17.13;86.14
71772;BME280;59606;52.138;5.424;2023-08-17T03:53:19;102134.41;;;17.13;86.25
71772;BME280;59606;52.138;5.424;2023-08-17T03:55:47;102131.25;;;17.08;86.39
71772;BME280;59606;52.138;5.424;2023-08-17T03:58:14;102137.34;;;17.08;86.58
71772;BME280;59606;52.138;5.424;2023-08-17T04:00:41;102128.59;;;17.08;86.31
71772;BME280;59606;52.138;5.424;2023-08-17T04:03:07;102133.09;;;17.06;86.35
71772;BME280;59606;52.138;5.424;2023-08-17T04:05:34;102131.31;;;17.06;86.56
71772;BME280;59606;52.138;5.424;2023-08-17T04:08:00;102134.72;;;17.08;86.33
71772;BME280;59606;52.138;5.424;2023-08-17T04:10:29;102144.28;;;17.09;86.47
71772;BME280;59606;52.138;5.424;2023-08-17T04:12:56;102139.03;;;17.09;86.25
71772;BME280;59606;52.138;5.424;2023-08-17T04:15:23;102145.06;;;17.11;86.39
71772;BME280;59606;52.138;5.424;2023-08-17T04:17:49;102143.38;;;17.10;86.46
71772;BME280;59606;52.138;5.424;2023-08-17T04:20:16;102139.03;;;17.09;86.54
71772;BME280;59606;52.138;5.424;2023-08-17T04:22:44;102138.13;;;17.10;86.07
71772;BME280;59606;52.138;5.424;2023-08-17T04:25:12;102141.78;;;17.08;86.13
71772;BME280;59606;52.138;5.424;2023-08-17T04:27:39;102140.06;;;17.07;86.02
71772;BME280;59606;52.138;5.424;2023-08-17T04:30:06;102140.34;;;17.02;86.15
71772;BME280;59606;52.138;5.424;2023-08-17T04:32:33;102138.66;;;17.01;86.44
71772;BME280;59606;52.138;5.424;2023-08-17T04:35:00;102135.28;;;16.99;86.39
71772;BME280;59606;52.138;5.424;2023-08-17T04:37:26;102141.38;;;17.00;86.86
71772;BME280;59606;52.138;5.424;2023-08-17T04:39:53;102136.97;;;17.00;86.73
71772;BME280;59606;52.138;5.424;2023-08-17T04:42:20;102136.09;;;17.00;86.66
71772;BME280;59606;52.138;5.424;2023-08-17T04:44:46;102130.75;;;17.01;87.04
71772;BME280;59606;52.138;5.424;2023-08-17T04:47:13;102129.75;;;17.04;86.78
71772;BME280;59606;52.138;5.424;2023-08-17T04:49:40;102129.63;;;17.05;86.94
71772;BME280;59606;52.138;5.424;2023-08-17T04:52:06;102124.38;;;17.05;87.02
71772;BME280;59606;52.138;5.424;2023-08-17T04:54:33;102122.69;;;17.04;87.00
71772;BME280;59606;52.138;5.424;2023-08-17T04:57:00;102119.22;;;17.04;86.70
71772;BME280;59606;52.138;5.424;2023-08-17T04:59:26;102123.72;;;17.02;86.89
71772;BME280;59606;52.138;5.424;2023-08-17T05:01:53;102127.09;;;17.04;87.00
71772;BME280;59606;52.138;5.424;2023-08-17T05:04:20;102126.22;;;17.03;86.78
71772;BME280;59606;52.138;5.424;2023-08-17T05:06:47;102131.41;;;17.05;86.83
71772;BME280;59606;52.138;5.424;2023-08-17T05:09:13;102120.78;;;17.06;86.81
71772;BME280;59606;52.138;5.424;2023-08-17T05:11:40;102119.75;;;17.09;86.46
71772;BME280;59606;52.138;5.424;2023-08-17T05:14:06;102122.38;;;17.09;86.63
71772;BME280;59606;52.138;5.424;2023-08-17T05:16:33;102113.66;;;17.08;86.83
71772;BME280;59606;52.138;5.424;2023-08-17T05:18:59;102119.69;;;17.10;86.75
71772;BME280;59606;52.138;5.424;2023-08-17T05:21:26;102120.53;;;17.11;86.75
71772;BME280;59606;52.138;5.424;2023-08-17T05:23:53;102111.84;;;17.09;86.58
71772;BME280;59606;52.138;5.424;2023-08-17T05:26:20;102119.75;;;17.09;86.83
71772;BME280;59606;52.138;5.424;2023-08-17T05:28:47;102123.16;;;17.11;86.97
71772;BME280;59606;52.138;5.424;2023-08-17T05:31:14;102117.28;;;17.20;86.55
71772;BME280;59606;52.138;5.424;2023-08-17T05:33:41;102110.41;;;17.32;86.31
71772;BME280;59606;52.138;5.424;2023-08-17T05:36:07;102114.53;;;17.36;86.26
71772;BME280;59606;52.138;5.424;2023-08-17T05:38:34;102121.31;;;17.54;85.55
71772;BME280;59606;52.138;5.424;2023-08-17T05:41:01;102116.41;;;17.89;84.56
71772;BME280;59606;52.138;5.424;2023-08-17T05:43:28;102119.97;;;18.16;82.78
71772;BME280;59606;52.138;5.424;2023-08-17T05:45:57;102117.16;;;18.44;81.95
71772;BME280;59606;52.138;5.424;2023-08-17T05:48:25;102120.94;;;18.27;81.33
71772;BME280;59606;52.138;5.424;2023-08-17T05:50:51;102110.25;;;18.16;82.40
71772;BME280;59606;52.138;5.424;2023-08-17T05:53:18;102115.69;;;18.40;81.41
71772;BME280;59606;52.138;5.424;2023-08-17T05:55:44;102120.16;;;18.65;80.66
71772;BME280;59606;52.138;5.424;2023-08-17T05:58:11;102124.81;;;19.00;80.04
71772;BME280;59606;52.138;5.424;2023-08-17T06:00:37;102119.19;;;19.04;78.14
71772;BME280;59606;52.138;5.424;2023-08-17T06:03:04;102130.22;;;18.73;79.93
71772;BME280;59606;52.138;5.424;2023-08-17T06:05:31;102132.78;;;18.34;80.76
71772;BME280;59606;52.138;5.424;2023-08-17T06:07:57;102141.47;;;18.09;81.94
71772;BME280;59606;52.138;5.424;2023-08-17T06:10:24;102138.78;;;17.97;83.10
71772;BME280;59606;52.138;5.424;2023-08-17T06:12:55;102147.41;;;17.86;83.45
71772;BME280;59606;52.138;5.424;2023-08-17T06:15:22;102150.44;;;17.80;83.90
71772;BME280;59606;52.138;5.424;2023-08-17T06:17:49;102142.03;;;17.73;84.38
71772;BME280;59606;52.138;5.424;2023-08-17T06:20:18;102150.91;;;17.72;84.95
71772;BME280;59606;52.138;5.424;2023-08-17T06:22:47;102156.06;;;17.74;85.33
71772;BME280;59606;52.138;5.424;2023-08-17T06:25:13;102151.53;;;17.76;85.17
71772;BME280;59606;52.138;5.424;2023-08-17T06:27:41;102155.06;;;17.76;85.14
71772;BME280;59606;52.138;5.424;2023-08-17T06:30:09;102152.41;;;17.76;85.23
71772;BME280;59606;52.138;5.424;2023-08-17T06:32:35;102154.13;;;17.77;85.22
71772;BME280;59606;52.138;5.424;2023-08-17T06:35:02;102158.25;;;17.81;85.65
71772;BME280;59606;52.138;5.424;2023-08-17T06:37:29;102165.00;;;17.85;85.27
71772;BME280;59606;52.138;5.424;2023-08-17T06:39:56;102156.06;;;17.88;85.68
71772;BME280;59606;52.138;5.424;2023-08-17T06:42:22;102153.97;;;17.93;85.36
71772;BME280;59606;52.138;5.424;2023-08-17T06:44:49;102154.91;;;17.92;84.95
71772;BME280;59606;52.138;5.424;2023-08-17T06:47:15;102156.41;;;17.96;85.15
71772;BME280;59606;52.138;5.424;2023-08-17T06:49:42;102157.25;;;17.97;85.07
71772;BME280;59606;52.138;5.424;2023-08-17T06:52:08;102157.88;;;18.00;84.58
71772;BME280;59606;52.138;5.424;2023-08-17T06:54:35;102155.91;;;18.04;84.70
71772;BME280;59606;52.138;5.424;2023-08-17T06:57:01;102158.25;;;18.08;84.70
71772;BME280;59606;52.138;5.424;2023-08-17T06:59:28;102163.41;;;18.10;84.76
71772;BME280;59606;52.138;5.424;2023-08-17T07:01:56;102163.41;;;18.10;84.40
71772;BME280;59606;52.138;5.424;2023-08-17T07:04:23;102161.53;;;18.12;84.44
71772;BME280;59606;52.138;5.424;2023-08-17T07:06:49;102162.25;;;18.14;84.09
71772;BME280;59606;52.138;5.424;2023-08-17T07:09:16;102165.44;;;18.19;84.28
71772;BME280;59606;52.138;5.424;2023-08-17T07:11:43;102168.66;;;18.24;84.33
71772;BME280;59606;52.138;5.424;2023-08-17T07:14:09;102162.50;;;18.24;83.99
71772;BME280;59606;52.138;5.424;2023-08-17T07:16:36;102165.25;;;18.22;83.87
71772;BME280;59606;52.138;5.424;2023-08-17T07:19:02;102163.66;;;18.20;83.57
71772;BME280;59606;52.138;5.424;2023-08-17T07:21:29;102163.78;;;18.18;83.87
71772;BME280;59606;52.138;5.424;2023-08-17T07:23:55;102160.72;;;18.24;83.70
71772;BME280;59606;52.138;5.424;2023-08-17T07:26:22;102168.13;;;18.32;83.70
71772;BME280;59606;52.138;5.424;2023-08-17T07:28:49;102166.84;;;18.37;83.22
71772;BME280;59606;52.138;5.424;2023-08-17T07:31:15;102161.09;;;18.45;83.60
71772;BME280;59606;52.138;5.424;2023-08-17T07:33:42;102164.69;;;18.57;83.31
71772;BME280;59606;52.138;5.424;2023-08-17T07:36:08;102161.56;;;18.65;82.11
71772;BME280;59606;52.138;5.424;2023-08-17T07:38:35;102162.28;;;18.67;82.44
71772;BME280;59606;52.138;5.424;2023-08-17T07:41:02;102158.72;;;18.80;82.35
71772;BME280;59606;52.138;5.424;2023-08-17T07:43:29;102153.56;;;18.92;82.52
71772;BME280;59606;52.138;5.424;2023-08-17T07:45:56;102162.97;;;19.08;81.35
71772;BME280;59606;52.138;5.424;2023-08-17T07:48:23;102152.91;;;19.14;80.72
71772;BME280;59606;52.138;5.424;2023-08-17T07:50:53;102154.38;;;19.18;80.99
71772;BME280;59606;52.138;5.424;2023-08-17T07:53:19;102160.47;;;19.31;80.63
71772;BME280;59606;52.138;5.424;2023-08-17T07:55:46;102163.09;;;19.44;80.37
71772;BME280;59606;52.138;5.424;2023-08-17T07:58:15;102164.47;;;19.49;79.87
71772;BME280;59606;52.138;5.424;2023-08-17T08:00:41;102169.84;;;19.48;79.83
71772;BME280;59606;52.138;5.424;2023-08-17T08:03:08;102163.63;;;19.49;79.95
71772;BME280;59606;52.138;5.424;2023-08-17T08:05:35;102169.09;;;19.59;79.96
71772;BME280;59606;52.138;5.424;2023-08-17T08:08:01;102168.47;;;19.55;79.18
71772;BME280;59606;52.138;5.424;2023-08-17T08:10:28;102173.13;;;19.64;79.55
71772;BME280;59606;52.138;5.424;2023-08-17T08:12:55;102162.28;;;19.80;81.52
71772;BME280;59606;52.138;5.424;2023-08-17T08:15:21;102161.63;;;19.89;78.12
71772;BME280;59606;52.138;5.424;2023-08-17T08:17:48;102153.91;;;19.86;77.87
71772;BME280;59606;52.138;5.424;2023-08-17T08:20:15;102154.56;;;19.77;78.09
71772;BME280;59606;52.138;5.424;2023-08-17T08:22:41;102153.13;;;19.73;78.42
71772;BME280;59606;52.138;5.424;2023-08-17T08:25:08;102169.59;;;19.76;79.06
71772;BME280;59606;52.138;5.424;2023-08-17T08:27:35;102149.63;;;19.72;78.75
71772;BME280;59606;52.138;5.424;2023-08-17T08:30:01;102157.34;;;19.75;78.40
71772;BME280;59606;52.138;5.424;2023-08-17T08:32:28;102154.22;;;19.82;78.85
71772;BME280;59606;52.138;5.424;2023-08-17T08:34:56;102157.78;;;19.93;78.77
71772;BME280;59606;52.138;5.424;2023-08-17T08:37:22;102159.63;;;20.04;78.70
71772;BME280;59606;52.138;5.424;2023-08-17T08:39:53;102161.44;;;20.04;77.78
71772;BME280;59606;52.138;5.424;2023-08-17T08:42:21;102155.63;;;19.98;77.47
71772;BME280;59606;52.138;5.424;2023-08-17T08:44:49;102163.16;;;19.92;78.08
71772;BME280;59606;52.138;5.424;2023-08-17T08:47:17;102163.31;;;19.90;78.83
71772;BME280;59606;52.138;5.424;2023-08-17T08:49:59;102159.59;;;19.93;78.31
71772;BME280;59606;52.138;5.424;2023-08-17T08:52:35;102151.66;;;19.93;78.03
71772;BME280;59606;52.138;5.424;2023-08-17T08:55:09;102146.38;;;19.93;78.12
71772;BME280;59606;52.138;5.424;2023-08-17T08:57:38;102155.41;;;20.01;77.88
71772;BME280;59606;52.138;5.424;2023-08-17T09:00:06;102151.13;;;20.12;78.15
71772;BME280;59606;52.138;5.424;2023-08-17T09:02:34;102154.38;;;20.15;77.91
71772;BME280;59606;52.138;5.424;2023-08-17T09:05:02;102145.88;;;20.23;77.47
71772;BME280;59606;52.138;5.424;2023-08-17T09:07:30;102155.03;;;20.19;76.30
71772;BME280;59606;52.138;5.424;2023-08-17T09:09:57;102146.78;;;20.11;77.20
71772;BME280;59606;52.138;5.424;2023-08-17T09:12:24;102143.69;;;20.17;77.65
71772;BME280;59606;52.138;5.424;2023-08-17T09:15:05;102140.69;;;20.21;77.12
71772;BME280;59606;52.138;5.424;2023-08-17T09:17:32;102143.13;;;20.24;76.68
71772;BME280;59606;52.138;5.424;2023-08-17T09:20:01;102133.56;;;20.46;76.98
71772;BME280;59606;52.138;5.424;2023-08-17T09:22:43;102131.34;;;20.64;76.51
71772;BME280;59606;52.138;5.424;2023-08-17T09:25:10;102139.28;;;20.75;76.34
71772;BME280;59606;52.138;5.424;2023-08-17T09:27:38;102125.94;;;20.77;75.25
71772;BME280;59606;52.138;5.424;2023-08-17T09:30:06;102135.47;;;20.79;75.74
71772;BME280;59606;52.138;5.424;2023-08-17T09:32:33;102133.53;;;20.81;75.66
71772;BME280;59606;52.138;5.424;2023-08-17T09:35:01;102126.56;;;20.80;76.15
71772;BME280;59606;52.138;5.424;2023-08-17T09:37:28;102126.19;;;20.85;75.55
71772;BME280;59606;52.138;5.424;2023-08-17T09:39:55;102118.00;;;20.88;74.94
71772;BME280;59606;52.138;5.424;2023-08-17T09:42:22;102129.44;;;20.88;74.92
71772;BME280;59606;52.138;5.424;2023-08-17T09:44:49;102124.59;;;20.82;74.89
71772;BME280;59606;52.138;5.424;2023-08-17T09:47:17;102121.50;;;20.77;74.73
71772;BME280;59606;52.138;5.424;2023-08-17T09:49:48;102119.31;;;20.82;75.79
71772;BME280;59606;52.138;5.424;2023-08-17T09:52:16;102120.66;;;20.88;75.32
71772;BME280;59606;52.138;5.424;2023-08-17T09:54:43;102118.50;;;20.93;74.33
71772;BME280;59606;52.138;5.424;2023-08-17T09:57:10;102118.13;;;20.98;74.26
71772;BME280;59606;52.138;5.424;2023-08-17T09:59:36;102108.25;;;21.00;74.29
71772;BME280;59606;52.138;5.424;2023-08-17T10:02:17;102116.31;;;20.98;74.87
71772;BME280;59606;52.138;5.424;2023-08-17T10:04:51;102115.00;;;20.92;74.53
71772;BME280;59606;52.138;5.424;2023-08-17T10:07:19;102116.41;;;20.85;74.22
71772;BME280;59606;52.138;5.424;2023-08-17T10:09:54;102115.13;;;20.80;74.89
71772;BME280;59606;52.138;5.424;2023-08-17T10:12:27;102111.13;;;20.74;75.42
71772;BME280;59606;52.138;5.424;2023-08-17T10:14:59;102107.75;;;20.72;75.27
71772;BME280;59606;52.138;5.424;2023-08-17T10:20:26;102104.25;;;20.71;75.15
71772;BME280;59606;52.138;5.424;2023-08-17T10:23:06;102099.56;;;20.75;75.08
71772;BME280;59606;52.138;5.424;2023-08-17T10:25:35;102101.88;;;20.80;75.28
71772;BME280;59606;52.138;5.424;2023-08-17T10:28:02;102098.00;;;20.84;76.10
71772;BME280;59606;52.138;5.424;2023-08-17T10:30:30;102099.34;;;20.89;74.79
71772;BME280;59606;52.138;5.424;2023-08-17T10:32:56;102091.25;;;20.91;74.97
71772;BME280;59606;52.138;5.424;2023-08-17T10:35:23;102095.94;;;20.99;74.87
71772;BME280;59606;52.138;5.424;2023-08-17T10:37:50;102099.69;;;21.07;75.09
71772;BME280;59606;52.138;5.424;2023-08-17T10:40:25;102086.41;;;21.18;74.61
71772;BME280;59606;52.138;5.424;2023-08-17T10:42:55;102097.13;;;21.28;74.80
71772;BME280;59606;52.138;5.424;2023-08-17T10:45:30;102094.38;;;21.30;74.17
71772;BME280;59606;52.138;5.424;2023-08-17T10:50:38;102103.44;;;21.16;73.69
71772;BME280;59606;52.138;5.424;2023-08-17T10:53:10;102103.78;;;21.11;73.91
71772;BME280;59606;52.138;5.424;2023-08-17T10:55:38;102107.25;;;21.12;74.41
71772;BME280;59606;52.138;5.424;2023-08-17T10:58:06;102100.78;;;21.16;74.13
71772;BME280;59606;52.138;5.424;2023-08-17T11:00:40;102105.72;;;21.09;73.91
71772;BME280;59606;52.138;5.424;2023-08-17T11:03:16;102104.25;;;21.05;74.50
71772;BME280;59606;52.138;5.424;2023-08-17T11:05:48;102095.22;;;21.08;74.07
71772;BME280;59606;52.138;5.424;2023-08-17T11:08:31;102087.78;;;21.13;74.23
71772;BME280;59606;52.138;5.424;2023-08-17T11:11:05;102089.31;;;21.15;75.34
71772;BME280;59606;52.138;5.424;2023-08-17T11:13:45;102079.78;;;21.24;75.10
71772;BME280;59606;52.138;5.424;2023-08-17T11:16:14;102084.75;;;21.40;74.98
71772;BME280;59606;52.138;5.424;2023-08-17T11:18:44;102092.16;;;21.57;73.81
71772;BME280;59606;52.138;5.424;2023-08-17T11:21:11;102081.16;;;21.62;73.81
71772;BME280;59606;52.138;5.424;2023-08-17T11:23:44;102085.88;;;21.70;73.61
71772;BME280;59606;52.138;5.424;2023-08-17T11:26:11;102080.66;;;21.68;73.35
71772;BME280;59606;52.138;5.424;2023-08-17T11:28:38;102086.44;;;21.73;73.17
71772;BME280;59606;52.138;5.424;2023-08-17T11:31:10;102088.13;;;21.74;72.80
71772;BME280;59606;52.138;5.424;2023-08-17T11:33:38;102087.91;;;21.66;72.74
71772;BME280;59606;52.138;5.424;2023-08-17T11:36:07;102090.84;;;21.63;73.94
71772;BME280;59606;52.138;5.424;2023-08-17T11:38:39;102096.09;;;21.74;73.53
71772;BME280;59606;52.138;5.424;2023-08-17T11:41:06;102095.09;;;21.75;73.04
71772;BME280;59606;52.138;5.424;2023-08-17T11:43:36;102095.09;;;21.75;73.22
71772;BME280;59606;52.138;5.424;2023-08-17T11:46:03;102090.06;;;21.72;73.13
71772;BME280;59606;52.138;5.424;2023-08-17T11:48:30;102095.25;;;21.74;72.43
71772;BME280;59606;52.138;5.424;2023-08-17T11:51:02;102094.31;;;21.63;73.09
71772;BME280;59606;52.138;5.424;2023-08-17T11:53:34;102075.25;;;21.70;73.06
71772;BME280;59606;52.138;5.424;2023-08-17T11:56:01;102071.06;;;21.88;72.82
71772;BME280;59606;52.138;5.424;2023-08-17T12:01:09;102080.78;;;21.99;71.93
71772;BME280;59606;52.138;5.424;2023-08-17T12:03:36;102081.44;;;21.91;71.79
71772;BME280;59606;52.138;5.424;2023-08-17T12:06:04;102081.69;;;21.88;71.86
71772;BME280;59606;52.138;5.424;2023-08-17T12:08:31;102079.78;;;21.79;72.29
71772;BME280;59606;52.138;5.424;2023-08-17T12:10:57;102085.34;;;21.76;72.49
71772;BME280;59606;52.138;5.424;2023-08-17T12:13:32;102081.97;;;21.74;72.77
71772;BME280;59606;52.138;5.424;2023-08-17T12:15:59;102087.66;;;21.69;72.84
71772;BME280;59606;52.138;5.424;2023-08-17T12:18:26;102083.13;;;21.60;73.95
71772;BME280;59606;52.138;5.424;2023-08-17T12:20:53;102082.88;;;21.52;73.21
71772;BME280;59606;52.138;5.424;2023-08-17T12:23:20;102078.91;;;21.46;73.55
71772;BME280;59606;52.138;5.424;2023-08-17T12:25:52;102077.13;;;21.47;74.08
71772;BME280;59606;52.138;5.424;2023-08-17T12:28:19;102077.47;;;21.53;73.92
71772;BME280;59606;52.138;5.424;2023-08-17T12:30:45;102071.31;;;21.53;73.78
71772;BME280;59606;52.138;5.424;2023-08-17T12:33:12;102079.88;;;21.56;73.80
71772;BME280;59606;52.138;5.424;2023-08-17T12:35:39;102075.88;;;21.62;73.85
71772;BME280;59606;52.138;5.424;2023-08-17T12:38:05;102076.84;;;21.61;73.33
71772;BME280;59606;52.138;5.424;2023-08-17T12:40:32;102076.34;;;21.56;73.20
71772;BME280;59606;52.138;5.424;2023-08-17T12:42:59;102081.06;;;21.52;74.17
71772;BME280;59606;52.138;5.424;2023-08-17T12:45:25;102080.22;;;21.52;73.61
71772;BME280;59606;52.138;5.424;2023-08-17T12:47:54;102080.38;;;21.50;73.70
71772;BME280;59606;52.138;5.424;2023-08-17T12:50:20;102083.13;;;21.49;74.13
71772;BME280;59606;52.138;5.424;2023-08-17T12:52:47;102086.88;;;21.46;73.97
71772;BME280;59606;52.138;5.424;2023-08-17T12:55:14;102081.13;;;21.41;74.46
71772;BME280;59606;52.138;5.424;2023-08-17T12:57:40;102080.53;;;21.37;74.56
71772;BME280;59606;52.138;5.424;2023-08-17T13:00:07;102074.38;;;21.37;74.59
71772;BME280;59606;52.138;5.424;2023-08-17T13:02:35;102083.63;;;21.42;74.36